Airfield :
LOGIN :

Register | Disclaimer

   EN    FR    IT 

 










Legend :    VFR   Marginal VFR   IFR   Intensive IFR   Very Intensive IFR
Visi :
Ceiling :
>= 8 km
>= 3000ft
5 to 8 km
1000 to 3000 ft
1500m to 5 km
500 to 1000 ft
800 to 1500m
200 to 500 ft
< 800m
< 200 ft
Symbols :   Thunderstorms  Fog  Heavy snow  Heavy precipitations  Wind > 20 kt
SIGMETs :     Misc.  Thunderstorms  Icing  Turbulence  Mountain Waves  Volcanic Ashes






- Airport Elevation : 359 ft
- IATA code : BVA


LFOB - Beauvais

CURRENT METAR :
  • 182300Z AUTO 21010KT 180V240 9999 OVC016 05/03 Q1020 TEMPO 4000 DZRA OVC007

EXPIRED METARs :
  • 182230Z AUTO 21009KT 9999 BKN017 BKN033 04/02 Q1021 TEMPO 4000 DZRA OVC007
  • 182200Z AUTO 22008KT 9999 BKN033 BKN190 04/02 Q1021 TEMPO 4000 RA OVC007
  • 182130Z AUTO 21007KT 9999 FEW037 BKN170 BKN190 04/02 Q1021 TEMPO 4000 RA OVC007
  • 182100Z AUTO 22008KT 9999 FEW039 BKN130 04/02 Q1022 TEMPO 4000 RA OVC007
  • 182030Z AUTO 21006KT 9999 SCT035 BKN140 BKN170 03/01 Q1022 TEMPO 4000 RA OVC007

TAF AMD TAF LFOB
Valid from the 18 at 22:00 until the 19 at 18:00 UTC


182203Z 1822/1918 20013KT 9999 BKN040
BECMG 1822/1824 BKN013 OVC020
TEMPO 1900/1910 4000 DZRA OVC007
TEMPO 1902/1911 20015G25KT
ATIS : +33 3 44 11 49 28



MET'MAP, your aeronautical weather chart ! - Copyright ORBIFLY December 2007 - Disclaimer

ORBIFLY MET'MAP TEAM :

Programming & Development : Alexandra Zaïnal
Concept & original design : Baudouin d'Aumeries
Assistance for programming : Marc-Olivier Méhu
Technical & hardware support : Manuel Goepfert

Contact : metmap@orbifly.com




SOURCES & CREDITS :

   NOAA